La Suprema — IBIL — position and weather

sailwx.info

Track history (hours):
 
Tides and Currents Weather Stations Pressure Air Temp Water Temp Dewpoint Dewpoint Depression Visibility Wind Speed Wind Dir Waves Ship Positions

La Suprema

Last reported at 2017-Aug-20 19:41 UTC. Time now 2017-Aug-21 12:14 UTC.
Position N 41°59' E 009°46'.

Length 211 m; draft 7.3 m.

Type: Passenger vessel. MMSI: 247083700.

Date/timePositionNaut miles runAvg speedWind from/ knotsBaromVisibWave heightAir tempDewpointWater temp
2017-Aug-20 19:41N 41°59' E 009°46'527.4
2017-Aug-20 19:30N 42°04' E 009°45'1427.7
2017-Aug-20 19:00N 42°18' E 009°43'1427.9
2017-Aug-20 18:30N 42°31' E 009°40'1827.3
2017-Aug-20 17:52N 42°49' E 009°40'926.9
2017-Aug-20 17:30N 42°58' E 009°36'1427.1
2017-Aug-20 17:01N 43°11' E 009°31'1326.9
2017-Aug-20 16:31N 43°24' E 009°25'1326.7
2017-Aug-20 16:01N 43°36' E 009°19'1326.4
2017-Aug-20 15:31N 43°49' E 009°13'1326.8
2017-Aug-20 15:01N 44°01' E 009°07'1326.8
2017-Aug-20 14:31N 44°14' E 009°01'1020.8
2017-Aug-20 14:01N 44°24' E 008°56'1 1.7
2017-Aug-20 13:29N 44°24' E 008°55'0 0.0
2017-Aug-20 12:59N 44°24' E 008°55'0 0.0
2017-Aug-20 12:29N 44°24' E 008°55'0 0.0
2017-Aug-20 11:55N 44°24' E 008°55'0 0.0
2017-Aug-20 11:28N 44°24' E 008°55'0 0.0
2017-Aug-20 10:55N 44°24' E 008°55'0 0.0
2017-Aug-20 10:28N 44°24' E 008°55'0 0.0
2017-Aug-20 09:58N 44°24' E 008°55'0 0.0
2017-Aug-20 09:30N 44°24' E 008°55'0 0.0
2017-Aug-20 09:00N 44°24' E 008°55'0 0.0
2017-Aug-20 08:30N 44°24' E 008°55'0 0.6
2017-Aug-20 08:00N 44°24' E 008°55'713.9
2017-Aug-20 07:30N 44°18' E 009°00'1427.0
2017-Aug-20 07:00N 44°06' E 009°07'1427.1
2017-Aug-20 06:31N 43°53' E 009°13'1427.0
2017-Aug-20 06:00N 43°40' E 009°20'1326.8
2017-Aug-20 05:30N 43°28' E 009°26'14726.3
2017-Aug-19 23:56N 41°03' E 009°59'2026.7
2017-Aug-19 23:10N 40°43' E 010°02'827.0
2017-Aug-19 22:53N 40°35' E 010°03'1026.6
2017-Aug-19 22:30N 40°25' E 010°04'9826.7
2017-Aug-19 18:52N 38°48' E 010°17'1027.0
2017-Aug-19 18:30N 38°38' E 010°19'1427.0
2017-Aug-19 18:00N 38°25' E 010°21'1827.0
2017-Aug-19 17:20N 38°08' E 010°23'125 6.1
2017-Aug-18 20:53N 40°11' E 010°03'822.3
2017-Aug-18 20:31N 40°20' E 010°02'1222.4
2017-Aug-18 20:00N 40°31' E 009°60'1921.9
2017-Aug-18 19:08N 40°50' E 009°57'321.8
2017-Aug-18 19:00N 40°52' E 009°56'9222.4
2017-Aug-18 14:54N 42°24' E 009°41'923.1
2017-Aug-18 14:30N 42°33' E 009°40'2222.3
2017-Aug-18 13:30N 42°55' E 009°36'1122.1
2017-Aug-18 13:00N 43°06' E 009°33'1122.5
2017-Aug-18 12:30N 43°16' E 009°28'1122.6
2017-Aug-18 12:00N 43°27' E 009°23'1122.5
2017-Aug-18 11:30N 43°38' E 009°18'1122.2
2017-Aug-18 11:00N 43°48' E 009°13'1122.2
2017-Aug-18 10:30N 43°58' E 009°07'1122.1
2017-Aug-18 10:00N 44°09' E 009°03'1122.3
2017-Aug-18 09:30N 44°20' E 008°58'5 9.4
2017-Aug-18 08:56N 44°24' E 008°55'0 0.0
2017-Aug-18 08:29N 44°24' E 008°55'0 0.0
2017-Aug-18 07:55N 44°24' E 008°55'0 0.0
2017-Aug-18 07:25N 44°24' E 008°55'0 0.0
2017-Aug-18 06:52N 44°24' E 008°55'0 0.0
2017-Aug-18 06:28N 44°24' E 008°55'0 0.0
2017-Aug-18 05:58N 44°24' E 008°55'0 0.0
2017-Aug-18 05:30N 44°24' E 008°55'0 0.0
2017-Aug-18 05:00N 44°24' E 008°55'0 0.0
2017-Aug-18 04:30N 44°24' E 008°55'0 0.0
2017-Aug-18 04:00N 44°24' E 008°55'0 0.0
2017-Aug-18 03:26N 44°24' E 008°55'0 0.0
2017-Aug-18 02:59N 44°24' E 008°55'0 0.0
2017-Aug-18 02:26N 44°24' E 008°55'0 0.0
2017-Aug-18 02:00N 44°24' E 008°55'0 0.0
2017-Aug-18 01:29N 44°24' E 008°55'0 0.0
2017-Aug-18 00:55N 44°24' E 008°55'0 0.0
2017-Aug-18 00:28N 44°24' E 008°55'0 0.0
2017-Aug-17 23:58N 44°24' E 008°55'0 0.0
2017-Aug-17 23:28N 44°24' E 008°55'0 0.0
2017-Aug-17 22:57N 44°24' E 008°55'0 0.0
2017-Aug-17 22:30N 44°24' E 008°55'0 0.0
2017-Aug-17 21:57N 44°24' E 008°55'0 0.0
2017-Aug-17 21:30N 44°24' E 008°55'0 0.0
2017-Aug-17 21:00N 44°24' E 008°55'0 0.0
2017-Aug-17 20:29N 44°24' E 008°55'0 0.0
2017-Aug-17 19:59N 44°24' E 008°55'0 0.0
2017-Aug-17 19:29N 44°24' E 008°55'0 0.0
2017-Aug-17 18:59N 44°24' E 008°55'0 0.0
2017-Aug-17 18:29N 44°24' E 008°55'0 0.0
2017-Aug-17 17:58N 44°24' E 008°55'0 0.0
2017-Aug-17 17:25N 44°24' E 008°55'0 0.0
2017-Aug-17 16:58N 44°24' E 008°55'0 0.0
2017-Aug-17 16:28N 44°24' E 008°55'0 0.0
2017-Aug-17 16:00N 44°24' E 008°55'0 0.0
2017-Aug-17 15:27N 44°24' E 008°55'0 0.0
2017-Aug-17 15:00N 44°24' E 008°55'0 0.0
2017-Aug-17 14:30N 44°24' E 008°55'0 0.0
2017-Aug-17 13:57N 44°24' E 008°55'0 0.0
2017-Aug-17 13:23N 44°24' E 008°55'0 0.0
2017-Aug-17 12:56N 44°24' E 008°55'0 0.0
2017-Aug-17 12:29N 44°24' E 008°55'0 0.0
2017-Aug-17 11:59N 44°24' E 008°55'0 0.0
2017-Aug-17 11:25N 44°24' E 008°55'0 0.0
2017-Aug-17 10:58N 44°24' E 008°55'0 0.0
2017-Aug-17 10:25N 44°24' E 008°55'0 0.0
2017-Aug-17 09:58N 44°24' E 008°55'0 0.0
2017-Aug-17 09:28N 44°24' E 008°55'0 0.0
2017-Aug-17 09:00N 44°24' E 008°55'0 0.0
2017-Aug-17 08:27N 44°24' E 008°55'0 0.0
2017-Aug-17 08:00N 44°24' E 008°55'0 0.0
2017-Aug-17 07:30N 44°24' E 008°55'0 0.0
2017-Aug-17 06:57N 44°24' E 008°55'0 0.0
2017-Aug-17 06:23N 44°24' E 008°55'0 0.0
2017-Aug-17 05:59N 44°24' E 008°55'0 0.0
2017-Aug-17 05:29N 44°24' E 008°55'0 0.0
2017-Aug-17 04:59N 44°24' E 008°55'0 0.0
2017-Aug-17 04:28N 44°24' E 008°55'0 0.0
2017-Aug-17 03:58N 44°24' E 008°55'0 0.0
2017-Aug-17 03:25N 44°24' E 008°55'0 0.0
2017-Aug-17 02:58N 44°24' E 008°55'0 0.0
2017-Aug-17 02:28N 44°24' E 008°55'0 0.0
2017-Aug-17 02:00N 44°24' E 008°55'0 0.0
2017-Aug-17 01:30N 44°24' E 008°55'0 0.0
2017-Aug-17 01:00N 44°24' E 008°55'0 0.0
2017-Aug-17 00:30N 44°24' E 008°55'0 0.0
2017-Aug-16 23:59N 44°24' E 008°55'0 0.0
2017-Aug-16 23:26N 44°24' E 008°55'0 0.0
2017-Aug-16 22:59N 44°24' E 008°55'0 0.0
2017-Aug-16 22:29N 44°24' E 008°55'0 0.0
2017-Aug-16 21:59N 44°24' E 008°55'0 0.0
2017-Aug-16 21:28N 44°24' E 008°55'0 0.0
2017-Aug-16 20:55N 44°24' E 008°55'0 0.0
2017-Aug-16 20:28N 44°24' E 008°55'0 0.0
2017-Aug-16 19:58N 44°24' E 008°55'0 0.0
2017-Aug-16 19:28N 44°24' E 008°55'0 0.0
2017-Aug-16 18:57N 44°24' E 008°55'0 0.0
2017-Aug-16 18:30N 44°24' E 008°55'0 0.0
2017-Aug-16 18:00N 44°24' E 008°55'0 0.0
2017-Aug-16 17:30N 44°24' E 008°55'0 0.0
2017-Aug-16 16:59N 44°24' E 008°55'0 0.0
2017-Aug-16 16:26N 44°24' E 008°55'0 0.0
2017-Aug-16 15:59N 44°24' E 008°55'0 0.0
2017-Aug-16 15:29N 44°24' E 008°55'0 0.0
2017-Aug-16 14:56N 44°24' E 008°55'0 0.0
2017-Aug-16 14:30N 44°24' E 008°55'1 2.8
2017-Aug-16 14:01N 44°23' E 008°56'917.7
2017-Aug-16 13:31N 44°16' E 009°02'1326.5
2017-Aug-16 13:01N 44°04' E 009°10'1326.8
2017-Aug-16 12:31N 43°51' E 009°15'1326.7
2017-Aug-16 12:01N 43°38' E 009°21'1326.9
2017-Aug-16 11:30N 43°25' E 009°27'1326.2
2017-Aug-16 11:00N 43°13' E 009°34'1326.5
2017-Aug-16 10:30N 43°01' E 009°39'1326.8
2017-Aug-16 10:00N 42°47' E 009°43'1326.2
2017-Aug-16 09:30N 42°34' E 009°45'1326.0
2017-Aug-16 09:00N 42°22' E 009°46'4626.1
2017-Aug-16 07:15N 41°36' E 009°54'1226.3
2017-Aug-16 06:48N 41°24' E 009°55'3626.2
2017-Aug-16 05:25N 40°48' E 010°01'2626.3
2017-Aug-16 04:26N 40°22' E 010°05'9926.2
2017-Aug-16 00:39N 38°44' E 010°17'526.1
2017-Aug-16 00:28N 38°39' E 010°18'1226.0
2017-Aug-15 23:59N 38°27' E 010°20'1326.3
2017-Aug-15 23:30N 38°14' E 010°22'1326.3
2017-Aug-15 23:00N 38°01' E 010°24'1726.2
2017-Aug-15 22:21N 37°44' E 010°26'926.4
2017-Aug-15 22:00N 37°35' E 010°28'1326.3
2017-Aug-15 21:30N 37°22' E 010°30'1325.8
2017-Aug-15 21:00N 37°09' E 010°30'1326.0
2017-Aug-15 20:30N 36°57' E 010°26'79 5.7
2017-Aug-15 06:46N 38°16' E 010°21'622.3
2017-Aug-15 06:30N 38°21' E 010°20'1122.2
2017-Aug-15 05:59N 38°33' E 010°18'11025.4
2017-Aug-15 01:39N 40°22' E 010°02'10626.7
2017-Aug-14 21:41N 42°07' E 009°43'626.9
2017-Aug-14 21:27N 42°13' E 009°43'1227.1
2017-Aug-14 21:01N 42°25' E 009°41'1326.6
2017-Aug-14 20:31N 42°38' E 009°39'1326.0
2017-Aug-14 20:01N 42°51' E 009°38'1325.9
2017-Aug-14 19:31N 43°04' E 009°35'1326.5
2017-Aug-14 19:00N 43°17' E 009°28'1326.0
2017-Aug-14 18:30N 43°29' E 009°23'1326.1
2017-Aug-14 18:01N 43°41' E 009°17'1326.2
2017-Aug-14 17:31N 43°53' E 009°10'1326.2
2017-Aug-14 17:01N 44°06' E 009°05'1326.3
2017-Aug-14 16:31N 44°18' E 008°59'713.7
2017-Aug-14 16:00N 44°24' E 008°55'0 0.1
2017-Aug-14 15:28N 44°24' E 008°55'0 0.0
2017-Aug-14 14:58N 44°24' E 008°55'0 0.0
2017-Aug-14 14:28N 44°24' E 008°55'0 0.0
2017-Aug-14 13:58N 44°24' E 008°55'0 0.0
2017-Aug-14 13:30N 44°24' E 008°55'0 0.0
2017-Aug-14 12:57N 44°24' E 008°55'0 0.0
2017-Aug-14 12:30N 44°24' E 008°55'0 0.0
2017-Aug-14 11:57N 44°24' E 008°55'0 0.0
2017-Aug-14 11:30N 44°24' E 008°55'0 0.0
2017-Aug-14 10:59N 44°24' E 008°55'0 0.0
2017-Aug-14 10:26N 44°24' E 008°55'0 0.5
2017-Aug-14 10:01N 44°24' E 008°55'4 8.9
2017-Aug-14 09:30N 44°21' E 008°59'1325.5
2017-Aug-14 09:01N 44°09' E 009°06'1326.8
2017-Aug-14 08:31N 43°56' E 009°11'1326.7
2017-Aug-14 08:01N 43°44' E 009°18'1326.5
2017-Aug-14 07:30N 43°31' E 009°24'1326.5
2017-Aug-14 07:00N 43°19' E 009°30'1326.4
2017-Aug-14 06:30N 43°06' E 009°35'1427.2
2017-Aug-14 05:59N 42°53' E 009°41'1526.2
2017-Aug-14 05:24N 42°37' E 009°44'1026.0
2017-Aug-14 05:01N 42°28' E 009°47'1325.9
2017-Aug-14 04:30N 42°14' E 009°49'23 0.6
2017-Aug-12 15:35N 42°36' E 009°39'226.9
2017-Aug-12 15:30N 42°38' E 009°39'1326.5
2017-Aug-12 15:00N 42°52' E 009°37'1325.8
2017-Aug-12 14:30N 43°04' E 009°34'1325.9
2017-Aug-12 13:59N 43°17' E 009°29'1225.5
2017-Aug-12 13:30N 43°29' E 009°23'1325.7
2017-Aug-12 13:01N 43°41' E 009°17'1325.6
2017-Aug-12 12:31N 43°53' E 009°11'1325.6
2017-Aug-12 12:01N 44°05' E 009°05'1325.9
2017-Aug-12 11:31N 44°17' E 008°59'815.6
2017-Aug-12 11:01N 44°24' E 008°55'0 0.5
2017-Aug-12 10:28N 44°24' E 008°55'0 0.0
2017-Aug-12 09:58N 44°24' E 008°55'0 0.0
2017-Aug-12 09:25N 44°24' E 008°55'0 0.0
2017-Aug-12 08:55N 44°24' E 008°55'0 0.0
2017-Aug-12 08:30N 44°24' E 008°55'0 0.0
2017-Aug-12 08:00N 44°24' E 008°55'0 0.0
2017-Aug-12 07:30N 44°24' E 008°55'0 0.0
2017-Aug-12 07:00N 44°24' E 008°55'0 0.0
2017-Aug-12 06:30N 44°24' E 008°55'0 0.0
2017-Aug-12 05:59N 44°24' E 008°55'0 0.0
2017-Aug-12 05:29N 44°24' E 008°55'0 0.0
2017-Aug-12 04:59N 44°24' E 008°55'0 0.0
2017-Aug-12 04:23N 44°24' E 008°55'0 0.0
2017-Aug-12 03:58N 44°24' E 008°55'0 0.0
2017-Aug-12 03:28N 44°24' E 008°55'0 0.0
2017-Aug-12 02:58N 44°24' E 008°55'0 0.0
2017-Aug-12 02:28N 44°24' E 008°55'0 0.0
2017-Aug-12 01:52N 44°24' E 008°55'0 0.0
2017-Aug-12 01:30N 44°24' E 008°55'0 0.0
2017-Aug-12 01:00N 44°24' E 008°55'0 0.0
2017-Aug-12 00:27N 44°24' E 008°55'0 0.0
2017-Aug-11 23:57N 44°24' E 008°55'0 0.0
2017-Aug-11 23:27N 44°24' E 008°55'0 0.0
2017-Aug-11 22:59N 44°24' E 008°55'0 0.0
2017-Aug-11 22:29N 44°24' E 008°55'0 0.0
2017-Aug-11 21:56N 44°24' E 008°55'0 0.0
2017-Aug-11 21:26N 44°24' E 008°55'0 0.0
2017-Aug-11 20:55N 44°24' E 008°55'0 0.0
2017-Aug-11 20:28N 44°24' E 008°55'0 0.0
2017-Aug-11 19:58N 44°24' E 008°55'0 0.0
2017-Aug-11 19:25N 44°24' E 008°55'0 0.0
2017-Aug-11 19:00N 44°24' E 008°55'0 0.3
2017-Aug-11 18:30N 44°24' E 008°55'611.6
2017-Aug-11 18:01N 44°20' E 008°59'1324.7
2017-Aug-11 17:30N 44°08' E 009°06'1326.6
2017-Aug-11 17:01N 43°56' E 009°14'1326.6
2017-Aug-11 16:31N 43°44' E 009°21'1326.3
2017-Aug-11 16:01N 43°31' E 009°26'1326.0
2017-Aug-11 15:31N 43°19' E 009°30'  
Track history (hours):
 
Tides and Currents Weather Stations Pressure Air Temp Water Temp Dewpoint Dewpoint Depression Visibility Wind Speed Wind Dir Waves Ship Positions

La Suprema

Last reported at 2017-Aug-20 19:41 UTC. Time now 2017-Aug-21 12:14 UTC.
Position N 41°59' E 009°46'.

Length 211 m; draft 7.3 m.

Type: Passenger vessel. MMSI: 247083700.

Date/timePositionNaut miles runAvg speedWind from/ knotsBaromVisibWave heightAir tempDewpointWater temp
2017-Aug-20 19:41N 41°59' E 009°46'527.4
2017-Aug-20 19:30N 42°04' E 009°45'1427.7
2017-Aug-20 19:00N 42°18' E 009°43'1427.9
2017-Aug-20 18:30N 42°31' E 009°40'1827.3
2017-Aug-20 17:52N 42°49' E 009°40'926.9
2017-Aug-20 17:30N 42°58' E 009°36'1427.1
2017-Aug-20 17:01N 43°11' E 009°31'1326.9
2017-Aug-20 16:31N 43°24' E 009°25'1326.7
2017-Aug-20 16:01N 43°36' E 009°19'1326.4
2017-Aug-20 15:31N 43°49' E 009°13'1326.8
2017-Aug-20 15:01N 44°01' E 009°07'1326.8
2017-Aug-20 14:31N 44°14' E 009°01'1020.8
2017-Aug-20 14:01N 44°24' E 008°56'1 1.7
2017-Aug-20 13:29N 44°24' E 008°55'0 0.0
2017-Aug-20 12:59N 44°24' E 008°55'0 0.0
2017-Aug-20 12:29N 44°24' E 008°55'0 0.0
2017-Aug-20 11:55N 44°24' E 008°55'0 0.0
2017-Aug-20 11:28N 44°24' E 008°55'0 0.0
2017-Aug-20 10:55N 44°24' E 008°55'0 0.0
2017-Aug-20 10:28N 44°24' E 008°55'0 0.0
2017-Aug-20 09:58N 44°24' E 008°55'0 0.0
2017-Aug-20 09:30N 44°24' E 008°55'0 0.0
2017-Aug-20 09:00N 44°24' E 008°55'0 0.0
2017-Aug-20 08:30N 44°24' E 008°55'0 0.6
2017-Aug-20 08:00N 44°24' E 008°55'713.9
2017-Aug-20 07:30N 44°18' E 009°00'1427.0
2017-Aug-20 07:00N 44°06' E 009°07'1427.1
2017-Aug-20 06:31N 43°53' E 009°13'1427.0
2017-Aug-20 06:00N 43°40' E 009°20'1326.8
2017-Aug-20 05:30N 43°28' E 009°26'14726.3
2017-Aug-19 23:56N 41°03' E 009°59'2026.7
2017-Aug-19 23:10N 40°43' E 010°02'827.0
2017-Aug-19 22:53N 40°35' E 010°03'1026.6
2017-Aug-19 22:30N 40°25' E 010°04'9826.7
2017-Aug-19 18:52N 38°48' E 010°17'1027.0
2017-Aug-19 18:30N 38°38' E 010°19'1427.0
2017-Aug-19 18:00N 38°25' E 010°21'1827.0
2017-Aug-19 17:20N 38°08' E 010°23'125 6.1
2017-Aug-18 20:53N 40°11' E 010°03'822.3
2017-Aug-18 20:31N 40°20' E 010°02'1222.4
2017-Aug-18 20:00N 40°31' E 009°60'1921.9
2017-Aug-18 19:08N 40°50' E 009°57'321.8
2017-Aug-18 19:00N 40°52' E 009°56'9222.4
2017-Aug-18 14:54N 42°24' E 009°41'923.1
2017-Aug-18 14:30N 42°33' E 009°40'2222.3
2017-Aug-18 13:30N 42°55' E 009°36'1122.1
2017-Aug-18 13:00N 43°06' E 009°33'1122.5
2017-Aug-18 12:30N 43°16' E 009°28'1122.6
2017-Aug-18 12:00N 43°27' E 009°23'1122.5
2017-Aug-18 11:30N 43°38' E 009°18'1122.2
2017-Aug-18 11:00N 43°48' E 009°13'1122.2
2017-Aug-18 10:30N 43°58' E 009°07'1122.1
2017-Aug-18 10:00N 44°09' E 009°03'1122.3
2017-Aug-18 09:30N 44°20' E 008°58'5 9.4
2017-Aug-18 08:56N 44°24' E 008°55'0 0.0
2017-Aug-18 08:29N 44°24' E 008°55'0 0.0
2017-Aug-18 07:55N 44°24' E 008°55'0 0.0
2017-Aug-18 07:25N 44°24' E 008°55'0 0.0
2017-Aug-18 06:52N 44°24' E 008°55'0 0.0
2017-Aug-18 06:28N 44°24' E 008°55'0 0.0
2017-Aug-18 05:58N 44°24' E 008°55'0 0.0
2017-Aug-18 05:30N 44°24' E 008°55'0 0.0
2017-Aug-18 05:00N 44°24' E 008°55'0 0.0
2017-Aug-18 04:30N 44°24' E 008°55'0 0.0
2017-Aug-18 04:00N 44°24' E 008°55'0 0.0
2017-Aug-18 03:26N 44°24' E 008°55'0 0.0
2017-Aug-18 02:59N 44°24' E 008°55'0 0.0
2017-Aug-18 02:26N 44°24' E 008°55'0 0.0
2017-Aug-18 02:00N 44°24' E 008°55'0 0.0
2017-Aug-18 01:29N 44°24' E 008°55'0 0.0
2017-Aug-18 00:55N 44°24' E 008°55'0 0.0
2017-Aug-18 00:28N 44°24' E 008°55'0 0.0
2017-Aug-17 23:58N 44°24' E 008°55'0 0.0
2017-Aug-17 23:28N 44°24' E 008°55'0 0.0
2017-Aug-17 22:57N 44°24' E 008°55'0 0.0
2017-Aug-17 22:30N 44°24' E 008°55'0 0.0
2017-Aug-17 21:57N 44°24' E 008°55'0 0.0
2017-Aug-17 21:30N 44°24' E 008°55'0 0.0
2017-Aug-17 21:00N 44°24' E 008°55'0 0.0
2017-Aug-17 20:29N 44°24' E 008°55'0 0.0
2017-Aug-17 19:59N 44°24' E 008°55'0 0.0
2017-Aug-17 19:29N 44°24' E 008°55'0 0.0
2017-Aug-17 18:59N 44°24' E 008°55'0 0.0
2017-Aug-17 18:29N 44°24' E 008°55'0 0.0
2017-Aug-17 17:58N 44°24' E 008°55'0 0.0
2017-Aug-17 17:25N 44°24' E 008°55'0 0.0
2017-Aug-17 16:58N 44°24' E 008°55'0 0.0
2017-Aug-17 16:28N 44°24' E 008°55'0 0.0
2017-Aug-17 16:00N 44°24' E 008°55'0 0.0
2017-Aug-17 15:27N 44°24' E 008°55'0 0.0
2017-Aug-17 15:00N 44°24' E 008°55'0 0.0
2017-Aug-17 14:30N 44°24' E 008°55'0 0.0
2017-Aug-17 13:57N 44°24' E 008°55'0 0.0
2017-Aug-17 13:23N 44°24' E 008°55'0 0.0
2017-Aug-17 12:56N 44°24' E 008°55'0 0.0
2017-Aug-17 12:29N 44°24' E 008°55'0 0.0
2017-Aug-17 11:59N 44°24' E 008°55'0 0.0
2017-Aug-17 11:25N 44°24' E 008°55'0 0.0
2017-Aug-17 10:58N 44°24' E 008°55'0 0.0
2017-Aug-17 10:25N 44°24' E 008°55'0 0.0
2017-Aug-17 09:58N 44°24' E 008°55'0 0.0
2017-Aug-17 09:28N 44°24' E 008°55'0 0.0
2017-Aug-17 09:00N 44°24' E 008°55'0 0.0
2017-Aug-17 08:27N 44°24' E 008°55'0 0.0
2017-Aug-17 08:00N 44°24' E 008°55'0 0.0
2017-Aug-17 07:30N 44°24' E 008°55'0 0.0
2017-Aug-17 06:57N 44°24' E 008°55'0 0.0
2017-Aug-17 06:23N 44°24' E 008°55'0 0.0
2017-Aug-17 05:59N 44°24' E 008°55'0 0.0
2017-Aug-17 05:29N 44°24' E 008°55'0 0.0
2017-Aug-17 04:59N 44°24' E 008°55'0 0.0
2017-Aug-17 04:28N 44°24' E 008°55'0 0.0
2017-Aug-17 03:58N 44°24' E 008°55'0 0.0
2017-Aug-17 03:25N 44°24' E 008°55'0 0.0
2017-Aug-17 02:58N 44°24' E 008°55'0 0.0
2017-Aug-17 02:28N 44°24' E 008°55'0 0.0
2017-Aug-17 02:00N 44°24' E 008°55'0 0.0
2017-Aug-17 01:30N 44°24' E 008°55'0 0.0
2017-Aug-17 01:00N 44°24' E 008°55'0 0.0
2017-Aug-17 00:30N 44°24' E 008°55'0 0.0
2017-Aug-16 23:59N 44°24' E 008°55'0 0.0
2017-Aug-16 23:26N 44°24' E 008°55'0 0.0
2017-Aug-16 22:59N 44°24' E 008°55'0 0.0
2017-Aug-16 22:29N 44°24' E 008°55'0 0.0
2017-Aug-16 21:59N 44°24' E 008°55'0 0.0
2017-Aug-16 21:28N 44°24' E 008°55'0 0.0
2017-Aug-16 20:55N 44°24' E 008°55'0 0.0
2017-Aug-16 20:28N 44°24' E 008°55'0 0.0
2017-Aug-16 19:58N 44°24' E 008°55'0 0.0
2017-Aug-16 19:28N 44°24' E 008°55'0 0.0
2017-Aug-16 18:57N 44°24' E 008°55'0 0.0
2017-Aug-16 18:30N 44°24' E 008°55'0 0.0
2017-Aug-16 18:00N 44°24' E 008°55'0 0.0
2017-Aug-16 17:30N 44°24' E 008°55'0 0.0
2017-Aug-16 16:59N 44°24' E 008°55'0 0.0
2017-Aug-16 16:26N 44°24' E 008°55'0 0.0
2017-Aug-16 15:59N 44°24' E 008°55'0 0.0
2017-Aug-16 15:29N 44°24' E 008°55'0 0.0
2017-Aug-16 14:56N 44°24' E 008°55'0 0.0
2017-Aug-16 14:30N 44°24' E 008°55'1 2.8
2017-Aug-16 14:01N 44°23' E 008°56'917.7
2017-Aug-16 13:31N 44°16' E 009°02'1326.5
2017-Aug-16 13:01N 44°04' E 009°10'1326.8
2017-Aug-16 12:31N 43°51' E 009°15'1326.7
2017-Aug-16 12:01N 43°38' E 009°21'1326.9
2017-Aug-16 11:30N 43°25' E 009°27'1326.2
2017-Aug-16 11:00N 43°13' E 009°34'1326.5
2017-Aug-16 10:30N 43°01' E 009°39'1326.8
2017-Aug-16 10:00N 42°47' E 009°43'1326.2
2017-Aug-16 09:30N 42°34' E 009°45'1326.0
2017-Aug-16 09:00N 42°22' E 009°46'4626.1
2017-Aug-16 07:15N 41°36' E 009°54'1226.3
2017-Aug-16 06:48N 41°24' E 009°55'3626.2
2017-Aug-16 05:25N 40°48' E 010°01'2626.3
2017-Aug-16 04:26N 40°22' E 010°05'9926.2
2017-Aug-16 00:39N 38°44' E 010°17'526.1
2017-Aug-16 00:28N 38°39' E 010°18'1226.0
2017-Aug-15 23:59N 38°27' E 010°20'1326.3
2017-Aug-15 23:30N 38°14' E 010°22'1326.3
2017-Aug-15 23:00N 38°01' E 010°24'1726.2
2017-Aug-15 22:21N 37°44' E 010°26'926.4
2017-Aug-15 22:00N 37°35' E 010°28'1326.3
2017-Aug-15 21:30N 37°22' E 010°30'1325.8
2017-Aug-15 21:00N 37°09' E 010°30'1326.0
2017-Aug-15 20:30N 36°57' E 010°26'79 5.7
2017-Aug-15 06:46N 38°16' E 010°21'622.3
2017-Aug-15 06:30N 38°21' E 010°20'1122.2
2017-Aug-15 05:59N 38°33' E 010°18'11025.4
2017-Aug-15 01:39N 40°22' E 010°02'10626.7
2017-Aug-14 21:41N 42°07' E 009°43'626.9
2017-Aug-14 21:27N 42°13' E 009°43'1227.1
2017-Aug-14 21:01N 42°25' E 009°41'1326.6
2017-Aug-14 20:31N 42°38' E 009°39'1326.0
2017-Aug-14 20:01N 42°51' E 009°38'1325.9
2017-Aug-14 19:31N 43°04' E 009°35'1326.5
2017-Aug-14 19:00N 43°17' E 009°28'1326.0
2017-Aug-14 18:30N 43°29' E 009°23'1326.1
2017-Aug-14 18:01N 43°41' E 009°17'1326.2
2017-Aug-14 17:31N 43°53' E 009°10'1326.2
2017-Aug-14 17:01N 44°06' E 009°05'1326.3
2017-Aug-14 16:31N 44°18' E 008°59'713.7
2017-Aug-14 16:00N 44°24' E 008°55'0 0.1
2017-Aug-14 15:28N 44°24' E 008°55'0 0.0
2017-Aug-14 14:58N 44°24' E 008°55'0 0.0
2017-Aug-14 14:28N 44°24' E 008°55'0 0.0
2017-Aug-14 13:58N 44°24' E 008°55'0 0.0
2017-Aug-14 13:30N 44°24' E 008°55'0 0.0
2017-Aug-14 12:57N 44°24' E 008°55'0 0.0
2017-Aug-14 12:30N 44°24' E 008°55'0 0.0
2017-Aug-14 11:57N 44°24' E 008°55'0 0.0
2017-Aug-14 11:30N 44°24' E 008°55'0 0.0
2017-Aug-14 10:59N 44°24' E 008°55'0 0.0
2017-Aug-14 10:26N 44°24' E 008°55'0 0.5
2017-Aug-14 10:01N 44°24' E 008°55'4 8.9
2017-Aug-14 09:30N 44°21' E 008°59'1325.5
2017-Aug-14 09:01N 44°09' E 009°06'1326.8
2017-Aug-14 08:31N 43°56' E 009°11'1326.7
2017-Aug-14 08:01N 43°44' E 009°18'1326.5
2017-Aug-14 07:30N 43°31' E 009°24'1326.5
2017-Aug-14 07:00N 43°19' E 009°30'1326.4
2017-Aug-14 06:30N 43°06' E 009°35'1427.2
2017-Aug-14 05:59N 42°53' E 009°41'1526.2
2017-Aug-14 05:24N 42°37' E 009°44'1026.0
2017-Aug-14 05:01N 42°28' E 009°47'1325.9
2017-Aug-14 04:30N 42°14' E 009°49'23 0.6
2017-Aug-12 15:35N 42°36' E 009°39'226.9
2017-Aug-12 15:30N 42°38' E 009°39'1326.5
2017-Aug-12 15:00N 42°52' E 009°37'1325.8
2017-Aug-12 14:30N 43°04' E 009°34'1325.9
2017-Aug-12 13:59N 43°17' E 009°29'1225.5
2017-Aug-12 13:30N 43°29' E 009°23'1325.7
2017-Aug-12 13:01N 43°41' E 009°17'1325.6
2017-Aug-12 12:31N 43°53' E 009°11'1325.6
2017-Aug-12 12:01N 44°05' E 009°05'1325.9
2017-Aug-12 11:31N 44°17' E 008°59'815.6
2017-Aug-12 11:01N 44°24' E 008°55'0 0.5
2017-Aug-12 10:28N 44°24' E 008°55'0 0.0
2017-Aug-12 09:58N 44°24' E 008°55'0 0.0
2017-Aug-12 09:25N 44°24' E 008°55'0 0.0
2017-Aug-12 08:55N 44°24' E 008°55'0 0.0
2017-Aug-12 08:30N 44°24' E 008°55'0 0.0
2017-Aug-12 08:00N 44°24' E 008°55'0 0.0
2017-Aug-12 07:30N 44°24' E 008°55'0 0.0
2017-Aug-12 07:00N 44°24' E 008°55'0 0.0
2017-Aug-12 06:30N 44°24' E 008°55'0 0.0
2017-Aug-12 05:59N 44°24' E 008°55'0 0.0
2017-Aug-12 05:29N 44°24' E 008°55'0 0.0
2017-Aug-12 04:59N 44°24' E 008°55'0 0.0
2017-Aug-12 04:23N 44°24' E 008°55'0 0.0
2017-Aug-12 03:58N 44°24' E 008°55'0 0.0
2017-Aug-12 03:28N 44°24' E 008°55'0 0.0
2017-Aug-12 02:58N 44°24' E 008°55'0 0.0
2017-Aug-12 02:28N 44°24' E 008°55'0 0.0
2017-Aug-12 01:52N 44°24' E 008°55'0 0.0
2017-Aug-12 01:30N 44°24' E 008°55'0 0.0
2017-Aug-12 01:00N 44°24' E 008°55'0 0.0
2017-Aug-12 00:27N 44°24' E 008°55'0 0.0
2017-Aug-11 23:57N 44°24' E 008°55'0 0.0
2017-Aug-11 23:27N 44°24' E 008°55'0 0.0
2017-Aug-11 22:59N 44°24' E 008°55'0 0.0
2017-Aug-11 22:29N 44°24' E 008°55'0 0.0
2017-Aug-11 21:56N 44°24' E 008°55'0 0.0
2017-Aug-11 21:26N 44°24' E 008°55'0 0.0
2017-Aug-11 20:55N 44°24' E 008°55'0 0.0
2017-Aug-11 20:28N 44°24' E 008°55'0 0.0
2017-Aug-11 19:58N 44°24' E 008°55'0 0.0
2017-Aug-11 19:25N 44°24' E 008°55'0 0.0
2017-Aug-11 19:00N 44°24' E 008°55'0 0.3
2017-Aug-11 18:30N 44°24' E 008°55'611.6
2017-Aug-11 18:01N 44°20' E 008°59'1324.7
2017-Aug-11 17:30N 44°08' E 009°06'1326.6
2017-Aug-11 17:01N 43°56' E 009°14'1326.6
2017-Aug-11 16:31N 43°44' E 009°21'1326.3
2017-Aug-11 16:01N 43°31' E 009°26'1326.0
2017-Aug-11 15:31N 43°19' E 009°30'  

Dump ship's entire track history